createdAt,value
2023-02-17T00:00:25.998Z,50.908115
2023-02-17T00:01:26.000Z,50.908154
2023-02-17T00:02:26.009Z,50.908154
2023-02-17T00:03:26.064Z,50.908150
2023-02-17T00:04:25.960Z,50.908104
2023-02-17T00:05:25.957Z,50.908066
2023-02-17T00:06:25.953Z,50.908127
2023-02-17T00:07:25.944Z,50.908134
2023-02-17T00:08:25.930Z,50.908146
2023-02-17T00:09:25.946Z,50.908146
2023-02-17T00:10:25.907Z,50.908150
2023-02-17T00:11:25.906Z,50.908165
2023-02-17T00:12:25.900Z,50.908165
2023-02-17T00:13:25.891Z,50.908180
2023-02-17T00:14:25.914Z,50.908150
2023-02-17T00:15:25.874Z,50.908165
2023-02-17T00:16:25.892Z,50.908180
2023-02-17T00:17:25.883Z,50.908195
2023-02-17T00:18:25.856Z,50.908192
2023-02-17T00:19:25.982Z,50.908154
2023-02-17T00:20:25.835Z,50.908146
2023-02-17T00:21:25.839Z,50.908154
2023-02-17T00:22:25.821Z,50.908112
2023-02-17T00:23:25.811Z,50.908138
2023-02-17T00:24:25.838Z,50.908127
2023-02-17T00:25:25.803Z,50.908154
2023-02-17T00:26:25.827Z,50.908127
2023-02-17T00:27:25.783Z,50.908157
2023-02-17T00:28:25.773Z,50.908169
2023-02-17T00:29:25.803Z,50.908138
2023-02-17T00:30:25.804Z,50.908161
2023-02-17T00:31:25.793Z,50.908192
2023-02-17T00:32:25.752Z,50.908165
2023-02-17T00:33:25.742Z,50.908180
2023-02-17T00:34:25.760Z,50.908173
2023-02-17T00:35:25.730Z,50.908222
2023-02-17T00:36:25.743Z,50.908165
2023-02-17T00:37:25.710Z,50.908169
2023-02-17T00:38:25.703Z,50.908176
2023-02-17T00:39:25.722Z,50.908169
2023-02-17T00:40:25.689Z,50.908138
2023-02-17T00:41:25.699Z,50.908127
2023-02-17T00:42:25.673Z,50.908123
2023-02-17T00:43:25.669Z,50.908146
2023-02-17T00:44:25.695Z,50.908123
2023-02-17T00:45:25.669Z,50.908150
2023-02-17T00:46:25.657Z,50.908154
2023-02-17T00:47:25.644Z,50.908146
2023-02-17T00:48:25.664Z,50.908134
2023-02-17T00:49:25.664Z,50.908157
2023-02-17T00:50:25.621Z,50.908150
2023-02-17T00:51:25.615Z,50.908161
2023-02-17T00:52:25.596Z,50.908131
2023-02-17T00:53:25.593Z,50.908100
2023-02-17T00:54:25.607Z,50.908100
2023-02-17T00:55:25.578Z,50.908096
2023-02-17T00:56:25.575Z,50.908073
2023-02-17T00:57:25.560Z,50.908100
2023-02-17T00:58:25.561Z,50.908138
2023-02-17T00:59:25.582Z,50.908165
2023-02-17T01:00:25.531Z,50.908173
2023-02-17T01:01:25.543Z,50.908146
2023-02-17T01:02:25.522Z,50.908165
2023-02-17T01:03:25.539Z,50.908226
2023-02-17T01:04:25.545Z,50.908169
2023-02-17T01:05:25.508Z,50.908142
2023-02-17T01:06:25.497Z,50.908199
2023-02-17T01:07:25.494Z,50.908157
2023-02-17T01:08:25.481Z,50.908161
2023-02-17T01:09:25.489Z,50.908161
2023-02-17T01:10:25.464Z,50.908154
2023-02-17T01:11:25.460Z,50.908154
2023-02-17T01:12:26.451Z,50.908146
2023-02-17T01:13:25.440Z,50.908104
2023-02-17T01:14:25.464Z,50.908142
2023-02-17T01:15:25.421Z,50.908146
2023-02-17T01:16:25.506Z,50.908096
2023-02-17T01:17:25.416Z,50.908134
2023-02-17T01:18:25.411Z,50.908157
2023-02-17T01:19:25.413Z,50.908203
2023-02-17T01:20:25.387Z,50.908134
2023-02-17T01:21:25.396Z,50.908134
2023-02-17T01:22:25.370Z,50.908138
2023-02-17T01:23:25.357Z,50.908028
2023-02-17T01:24:25.383Z,50.907997
2023-02-17T01:25:25.356Z,50.908092
2023-02-17T01:26:25.368Z,50.908123
2023-02-17T01:27:25.339Z,50.908195
2023-02-17T01:28:25.321Z,50.908203
2023-02-17T01:29:25.342Z,50.908161
2023-02-17T01:30:25.339Z,50.908249
2023-02-17T01:31:25.362Z,50.908070
2023-02-17T01:32:25.292Z,50.908100
2023-02-17T01:33:25.281Z,50.908127
2023-02-17T01:34:25.300Z,50.908146
2023-02-17T01:35:25.266Z,50.908073
2023-02-17T01:36:25.266Z,50.908100
2023-02-17T01:37:25.265Z,50.908131
2023-02-17T01:38:25.252Z,50.908154
2023-02-17T01:39:25.269Z,50.908169
2023-02-17T01:40:25.230Z,50.908138
2023-02-17T01:41:25.227Z,50.908157
2023-02-17T01:42:25.214Z,50.908112
2023-02-17T01:43:25.210Z,50.908146
2023-02-17T01:44:25.235Z,50.908131
2023-02-17T01:45:25.195Z,50.908161
2023-02-17T01:46:25.246Z,50.908176
2023-02-17T01:47:25.179Z,50.908134
2023-02-17T01:48:25.174Z,50.908157
2023-02-17T01:49:25.187Z,50.908184
2023-02-17T01:50:25.151Z,50.908150
2023-02-17T01:51:25.162Z,50.908123
2023-02-17T01:52:25.146Z,50.908222
2023-02-17T01:53:25.134Z,50.908119
2023-02-17T01:54:25.125Z,50.907913
2023-02-17T01:55:25.138Z,50.907764
2023-02-17T01:56:25.100Z,50.907955
2023-02-17T01:57:25.091Z,50.907955
2023-02-17T01:58:25.088Z,50.907955
2023-02-17T01:59:25.078Z,50.907955
2023-02-17T02:00:25.103Z,50.907955
2023-02-17T02:01:25.068Z,50.907955
2023-02-17T02:02:25.176Z,50.907955
2023-02-17T02:03:25.053Z,50.907955
2023-02-17T02:04:25.045Z,50.907955
2023-02-17T02:05:25.057Z,50.907955
2023-02-17T02:06:25.041Z,50.907955
2023-02-17T02:07:25.026Z,50.907955
2023-02-17T02:08:25.003Z,50.907955
2023-02-17T02:09:25.001Z,50.907955
2023-02-17T02:10:25.026Z,50.907955
2023-02-17T02:11:24.989Z,50.907955
2023-02-17T02:12:24.985Z,50.907955
2023-02-17T02:13:24.974Z,50.907955
2023-02-17T02:14:24.964Z,50.907955
2023-02-17T02:15:24.983Z,50.907955
2023-02-17T02:16:24.992Z,50.907955
2023-02-17T02:17:24.947Z,50.907955
2023-02-17T02:18:24.938Z,50.907955
2023-02-17T02:19:24.923Z,50.907955
2023-02-17T02:20:24.958Z,50.907955
2023-02-17T02:21:24.931Z,50.907955
2023-02-17T02:22:24.903Z,50.907955
2023-02-17T02:23:24.898Z,50.907955
2023-02-17T02:24:24.892Z,50.908401
2023-02-17T02:25:24.908Z,50.908314
2023-02-17T02:26:24.872Z,50.908218
2023-02-17T02:27:24.871Z,50.908104
2023-02-17T02:28:24.866Z,50.908142
2023-02-17T02:29:24.857Z,50.908142
2023-02-17T02:30:24.892Z,50.908115
2023-02-17T02:31:24.888Z,50.908211
2023-02-17T02:32:24.832Z,50.908237
2023-02-17T02:33:24.827Z,50.908119
2023-02-17T02:34:24.814Z,50.908051
2023-02-17T02:35:24.811Z,50.908070
2023-02-17T02:36:24.837Z,50.908157
2023-02-17T02:37:24.798Z,50.908051
2023-02-17T02:38:24.786Z,50.908096
2023-02-17T02:39:24.788Z,50.908070
2023-02-17T02:40:24.767Z,50.908119
2023-02-17T02:41:24.791Z,50.908115
2023-02-17T02:42:24.757Z,50.908134
2023-02-17T02:43:24.757Z,50.908287
2023-02-17T02:44:24.736Z,50.908276
2023-02-17T02:45:24.769Z,50.908222
2023-02-17T02:46:24.759Z,50.908165
2023-02-17T02:47:24.722Z,50.908218
2023-02-17T02:48:24.716Z,50.908161
2023-02-17T02:49:24.701Z,50.908165
2023-02-17T02:50:24.693Z,50.908089
2023-02-17T02:51:24.710Z,50.908066
2023-02-17T02:52:24.675Z,50.908165
2023-02-17T02:53:24.682Z,50.908352
2023-02-17T02:54:24.672Z,50.908199
2023-02-17T02:55:24.656Z,50.908138
2023-02-17T02:56:24.675Z,50.908295
2023-02-17T02:57:24.645Z,50.908192
2023-02-17T02:58:24.640Z,50.908165
2023-02-17T02:59:24.628Z,50.908119
2023-02-17T03:00:24.622Z,50.908096
2023-02-17T03:01:24.743Z,50.908085
2023-02-17T03:02:24.600Z,50.908077
2023-02-17T03:03:24.588Z,50.908085
2023-02-17T03:04:24.586Z,50.908115
2023-02-17T03:05:24.579Z,50.908142
2023-02-17T03:06:24.614Z,50.908115
2023-02-17T03:07:24.559Z,50.908184
2023-02-17T03:08:24.569Z,50.908386
2023-02-17T03:09:24.552Z,50.908237
2023-02-17T03:10:24.538Z,50.908115
2023-02-17T03:11:24.555Z,50.908218
2023-02-17T03:12:24.528Z,50.908146
2023-02-17T03:13:24.514Z,50.908195
2023-02-17T03:14:24.537Z,50.908203
2023-02-17T03:15:24.508Z,50.908245
2023-02-17T03:16:24.603Z,50.908199
2023-02-17T03:17:24.495Z,50.908154
2023-02-17T03:18:24.487Z,50.908115
2023-02-17T03:19:24.483Z,50.908127
2023-02-17T03:20:24.463Z,50.908115
2023-02-17T03:21:24.481Z,50.908180
2023-02-17T03:22:24.450Z,50.908234
2023-02-17T03:23:24.439Z,50.908237
2023-02-17T03:24:24.428Z,50.908184
2023-02-17T03:25:24.427Z,50.908176
2023-02-17T03:26:24.443Z,50.908039
2023-02-17T03:27:24.404Z,50.908085
2023-02-17T03:28:24.395Z,50.908119
2023-02-17T03:29:24.394Z,50.908123
2023-02-17T03:30:24.454Z,50.908146
2023-02-17T03:31:24.492Z,50.908154
2023-02-17T03:32:24.409Z,50.908154
2023-02-17T03:33:24.368Z,50.908112
2023-02-17T03:34:24.360Z,50.908112
2023-02-17T03:35:24.347Z,50.908138
2023-02-17T03:36:24.376Z,50.908115
2023-02-17T03:37:24.340Z,50.908123
2023-02-17T03:38:24.335Z,50.908112
2023-02-17T03:39:24.331Z,50.908115
2023-02-17T03:40:24.323Z,50.908092
2023-02-17T03:41:24.311Z,50.908119
2023-02-17T03:42:24.325Z,50.908112
2023-02-17T03:43:24.291Z,50.908112
2023-02-17T03:44:24.286Z,50.908146
2023-02-17T03:45:24.299Z,50.908108
2023-02-17T03:46:24.287Z,50.908169
2023-02-17T03:47:24.283Z,50.908089
2023-02-17T03:48:24.257Z,50.908012
2023-02-17T03:49:24.258Z,50.908081
2023-02-17T03:50:24.242Z,50.908054
2023-02-17T03:51:24.229Z,50.908123
2023-02-17T03:52:25.242Z,50.908127
2023-02-17T03:53:24.209Z,50.908138
2023-02-17T03:54:24.197Z,50.908112
2023-02-17T03:55:24.201Z,50.908173
2023-02-17T03:56:24.182Z,50.908085
2023-02-17T03:57:24.209Z,50.908180
2023-02-17T03:58:24.170Z,50.908081
2023-02-17T03:59:24.157Z,50.908077
2023-02-17T04:00:24.152Z,50.908134
2023-02-17T04:01:24.161Z,50.908104
2023-02-17T04:02:24.159Z,50.908150
2023-02-17T04:03:24.128Z,50.908127
2023-02-17T04:04:24.146Z,50.908131
2023-02-17T04:05:24.110Z,50.908100
2023-02-17T04:06:24.102Z,50.908115
2023-02-17T04:07:24.116Z,50.908119
2023-02-17T04:08:24.087Z,50.908100
2023-02-17T04:09:24.081Z,50.908127
2023-02-17T04:10:24.080Z,50.908134
2023-02-17T04:11:24.058Z,50.908123
2023-02-17T04:12:24.076Z,50.908108
2023-02-17T04:13:24.043Z,50.908115
2023-02-17T04:14:24.038Z,50.908081
2023-02-17T04:15:24.046Z,50.908161
2023-02-17T04:16:24.024Z,50.908123
2023-02-17T04:17:24.045Z,50.908047
2023-02-17T04:18:24.024Z,50.908096
2023-02-17T04:19:24.013Z,50.908062
2023-02-17T04:20:23.988Z,50.908051
2023-02-17T04:21:23.992Z,50.908096
2023-02-17T04:22:24.009Z,50.908104
2023-02-17T04:23:23.968Z,50.908054
2023-02-17T04:24:23.964Z,50.908112
2023-02-17T04:25:23.942Z,50.908077
2023-02-17T04:26:24.949Z,50.908100
2023-02-17T04:27:23.938Z,50.908100
2023-02-17T04:28:24.163Z,50.908123
2023-02-17T04:29:23.929Z,50.908081
2023-02-17T04:30:23.987Z,50.908108
2023-02-17T04:31:23.931Z,50.908138
2023-02-17T04:32:23.886Z,50.908169
2023-02-17T04:33:25.114Z,50.908134
2023-02-17T04:34:23.878Z,50.908100
2023-02-17T04:35:23.871Z,50.908142
2023-02-17T04:36:23.861Z,50.908123
2023-02-17T04:37:23.859Z,50.908085
2023-02-17T04:38:23.872Z,50.908081
2023-02-17T04:39:23.848Z,50.908066
2023-02-17T04:40:23.835Z,50.908058
2023-02-17T04:41:23.819Z,50.908089
2023-02-17T04:42:23.817Z,50.908131
2023-02-17T04:43:23.833Z,50.908119
2023-02-17T04:44:23.804Z,50.908112
2023-02-17T04:45:23.793Z,50.908100
2023-02-17T04:46:23.813Z,50.908096
2023-02-17T04:47:23.777Z,50.908066
2023-02-17T04:48:23.802Z,50.908077
2023-02-17T04:49:23.772Z,50.908100
2023-02-17T04:50:23.765Z,50.908176
2023-02-17T04:51:23.747Z,50.908184
2023-02-17T04:52:23.738Z,50.908150
2023-02-17T04:53:23.764Z,50.908100
2023-02-17T04:54:23.728Z,50.908119
2023-02-17T04:55:23.734Z,50.908058
2023-02-17T04:56:23.708Z,50.908058
2023-02-17T04:57:23.701Z,50.908176
2023-02-17T04:58:23.723Z,50.908127
2023-02-17T04:59:25.538Z,50.908169
2023-02-17T05:00:24.680Z,50.908165
2023-02-17T05:01:23.685Z,50.908070
2023-02-17T05:02:23.664Z,50.908066
2023-02-17T05:03:23.695Z,50.908127
2023-02-17T05:04:23.680Z,50.908062
2023-02-17T05:05:23.643Z,50.908150
2023-02-17T05:06:23.633Z,50.908104
2023-02-17T05:07:23.614Z,50.908226
2023-02-17T05:08:24.644Z,50.908039
2023-02-17T05:09:23.612Z,50.908127
2023-02-17T05:10:24.115Z,50.908218
2023-02-17T05:11:24.598Z,50.908112
2023-02-17T05:12:23.594Z,50.908104
2023-02-17T05:13:23.607Z,50.908237
2023-02-17T05:14:23.573Z,50.908161
2023-02-17T05:15:23.567Z,50.908104
2023-02-17T05:16:23.601Z,50.908016
2023-02-17T05:17:23.548Z,50.908112
2023-02-17T05:18:23.577Z,50.908073
2023-02-17T05:19:23.535Z,50.908020
2023-02-17T05:20:23.525Z,50.908077
2023-02-17T05:21:23.519Z,50.908115
2023-02-17T05:22:23.512Z,50.908157
2023-02-17T05:23:23.527Z,50.908169
2023-02-17T05:24:23.492Z,50.908073
2023-02-17T05:25:23.489Z,50.908092
2023-02-17T05:26:23.478Z,50.908176
2023-02-17T05:27:23.470Z,50.908066
2023-02-17T05:28:23.498Z,50.908062
2023-02-17T05:29:23.453Z,50.908035
2023-02-17T05:30:23.462Z,50.907970
2023-02-17T05:31:23.533Z,50.908115
2023-02-17T05:32:23.432Z,50.908165
2023-02-17T05:33:23.454Z,50.908134
2023-02-17T05:34:23.420Z,50.908112
2023-02-17T05:35:23.429Z,50.908119
2023-02-17T05:36:23.404Z,50.908081
2023-02-17T05:37:23.401Z,50.908123
2023-02-17T05:38:23.394Z,50.908199
2023-02-17T05:39:23.417Z,50.908108
2023-02-17T05:40:23.375Z,50.908127
2023-02-17T05:41:23.350Z,50.908100
2023-02-17T05:42:24.355Z,50.908127
2023-02-17T05:43:23.360Z,50.908104
2023-02-17T05:44:23.365Z,50.908104
2023-02-17T05:45:23.349Z,50.908100
2023-02-17T05:46:23.377Z,50.908119
2023-02-17T05:47:23.320Z,50.908089
2023-02-17T05:48:24.307Z,50.908115
2023-02-17T05:49:23.325Z,50.908066
2023-02-17T05:50:23.298Z,50.908070
2023-02-17T05:51:23.290Z,50.908054
2023-02-17T05:52:23.287Z,50.908054
2023-02-17T05:53:23.264Z,50.908066
2023-02-17T05:54:23.293Z,50.908089
2023-02-17T05:55:23.248Z,50.908066
2023-02-17T05:56:23.244Z,50.908047
2023-02-17T05:57:23.236Z,50.908115
2023-02-17T05:58:23.225Z,50.908119
2023-02-17T05:59:23.249Z,50.908115
2023-02-17T06:00:23.218Z,50.908104
2023-02-17T06:01:23.203Z,50.908100
2023-02-17T06:02:23.205Z,50.908096
2023-02-17T06:03:23.195Z,50.908112
2023-02-17T06:04:23.258Z,50.908108
2023-02-17T06:05:23.174Z,50.908131
2023-02-17T06:06:23.176Z,50.908066
2023-02-17T06:07:23.164Z,50.908077
2023-02-17T06:08:24.162Z,50.907974
2023-02-17T06:09:23.195Z,50.908092
2023-02-17T06:10:23.140Z,50.908073
2023-02-17T06:11:23.136Z,50.908100
2023-02-17T06:12:23.127Z,50.908119
2023-02-17T06:13:23.125Z,50.908092
2023-02-17T06:14:23.139Z,50.908119
2023-02-17T06:15:23.112Z,50.908131
2023-02-17T06:16:23.128Z,50.908142
2023-02-17T06:17:23.098Z,50.908123
2023-02-17T06:18:23.099Z,50.908089
2023-02-17T06:19:23.099Z,50.908123
2023-02-17T06:20:23.067Z,50.908161
2023-02-17T06:21:23.056Z,50.908058
2023-02-17T06:22:23.050Z,50.908070
2023-02-17T06:23:23.047Z,50.908089
2023-02-17T06:24:23.064Z,50.908142
2023-02-17T06:25:23.033Z,50.908146
2023-02-17T06:26:23.023Z,50.908108
2023-02-17T06:27:23.016Z,50.908115
2023-02-17T06:28:23.010Z,50.908100
2023-02-17T06:29:23.026Z,50.908051
2023-02-17T06:30:23.033Z,50.908051
2023-02-17T06:31:23.116Z,50.908096
2023-02-17T06:32:23.022Z,50.908112
2023-02-17T06:33:22.966Z,50.908119
2023-02-17T06:34:23.488Z,50.908104
2023-02-17T06:35:22.949Z,50.908100
2023-02-17T06:36:22.939Z,50.908070
2023-02-17T06:37:22.936Z,50.908077
2023-02-17T06:38:22.964Z,50.908119
2023-02-17T06:39:22.948Z,50.908096
2023-02-17T06:40:22.912Z,50.908123
2023-02-17T06:41:22.902Z,50.908131
2023-02-17T06:42:22.892Z,50.908119
2023-02-17T06:43:22.913Z,50.908115
2023-02-17T06:44:22.877Z,50.908134
2023-02-17T06:45:22.882Z,50.908123
2023-02-17T06:46:22.873Z,50.908127
2023-02-17T06:47:22.860Z,50.908096
2023-02-17T06:48:22.877Z,50.908100
2023-02-17T06:49:22.845Z,50.908115
2023-02-17T06:50:22.853Z,50.908119
2023-02-17T06:51:22.834Z,50.908112
2023-02-17T06:52:22.821Z,50.908119
2023-02-17T06:53:22.835Z,50.908104
2023-02-17T06:54:22.808Z,50.908115
2023-02-17T06:55:22.792Z,50.908104
2023-02-17T06:56:22.788Z,50.908119
2023-02-17T06:57:22.777Z,50.908142
2023-02-17T06:58:22.800Z,50.908134
2023-02-17T06:59:22.763Z,50.908142
2023-02-17T07:00:22.767Z,50.908108
2023-02-17T07:01:22.767Z,50.908108
2023-02-17T07:02:22.801Z,50.908154
2023-02-17T07:03:22.760Z,50.908161
2023-02-17T07:04:22.734Z,50.908150
2023-02-17T07:05:22.725Z,50.908127
2023-02-17T07:06:22.705Z,50.908134
2023-02-17T07:07:22.712Z,50.908115
2023-02-17T07:08:22.728Z,50.908123
2023-02-17T07:09:22.689Z,50.908169
2023-02-17T07:10:22.693Z,50.908150
2023-02-17T07:11:22.695Z,50.908112
2023-02-17T07:12:22.671Z,50.908169
2023-02-17T07:13:22.766Z,50.908157
2023-02-17T07:14:24.913Z,50.908134
2023-02-17T07:15:23.646Z,50.908108
2023-02-17T07:16:22.712Z,50.908062
2023-02-17T07:17:22.633Z,50.908115
2023-02-17T07:18:22.650Z,50.908123
2023-02-17T07:19:22.611Z,50.908115
2023-02-17T07:20:22.606Z,50.908123
2023-02-17T07:21:22.598Z,50.908142
2023-02-17T07:22:22.592Z,50.908123
2023-02-17T07:23:22.606Z,50.908142
2023-02-17T07:24:22.579Z,50.908092
2023-02-17T07:25:22.571Z,50.908123
2023-02-17T07:26:22.590Z,50.908115
2023-02-17T07:27:22.554Z,50.908134
2023-02-17T07:28:22.569Z,50.908104
2023-02-17T07:29:22.534Z,50.908127
2023-02-17T07:30:22.629Z,50.908134
2023-02-17T07:31:22.714Z,50.908119
2023-02-17T07:32:22.513Z,50.908081
2023-02-17T07:33:22.531Z,50.908134
2023-02-17T07:34:22.500Z,50.908154
2023-02-17T07:35:22.496Z,50.908154
2023-02-17T07:36:22.483Z,50.908199
2023-02-17T07:37:22.473Z,50.908199
2023-02-17T07:38:22.485Z,50.908173
2023-02-17T07:39:22.460Z,50.908127
2023-02-17T07:40:22.446Z,50.908119
2023-02-17T07:41:22.431Z,50.908215
2023-02-17T07:42:22.429Z,50.908169
2023-02-17T07:43:22.433Z,50.908146
2023-02-17T07:44:23.410Z,50.908173
2023-02-17T07:45:22.394Z,50.908169
2023-02-17T07:46:23.412Z,50.908161
2023-02-17T07:47:22.392Z,50.908169
2023-02-17T07:48:22.424Z,50.908127
2023-02-17T07:49:22.373Z,50.908138
2023-02-17T07:50:22.366Z,50.908134
2023-02-17T07:51:22.355Z,50.908127
2023-02-17T07:52:22.350Z,50.908112
2023-02-17T07:53:22.365Z,50.908089
2023-02-17T07:54:22.342Z,50.908100
2023-02-17T07:55:22.328Z,50.908112
2023-02-17T07:56:22.326Z,50.908081
2023-02-17T07:57:22.319Z,50.908077
2023-02-17T07:58:22.332Z,50.908119
2023-02-17T07:59:23.305Z,50.908150
2023-02-17T08:00:22.296Z,50.908127
2023-02-17T08:01:22.305Z,50.908157
2023-02-17T08:02:22.337Z,50.908104
2023-02-17T08:03:22.308Z,50.908169
2023-02-17T08:04:22.341Z,50.908230
2023-02-17T08:05:23.117Z,50.908195
2023-02-17T08:06:22.245Z,50.908115
2023-02-17T08:07:23.239Z,50.908222
2023-02-17T08:08:22.264Z,50.908035
2023-02-17T08:09:22.224Z,50.908066
2023-02-17T08:10:22.214Z,50.908070
2023-02-17T08:11:22.204Z,50.908157
2023-02-17T08:12:22.202Z,50.908100
2023-02-17T08:13:22.232Z,50.908138
2023-02-17T08:14:22.195Z,50.908176
2023-02-17T08:15:22.182Z,50.908001
2023-02-17T08:16:22.201Z,50.907925
2023-02-17T08:17:22.161Z,50.908184
2023-02-17T08:18:22.162Z,50.907990
2023-02-17T08:19:22.168Z,50.907982
2023-02-17T08:20:22.140Z,50.908115
2023-02-17T08:21:22.126Z,50.908195
2023-02-17T08:22:22.134Z,50.908100
2023-02-17T08:23:22.118Z,50.908001
2023-02-17T08:24:22.157Z,50.908268
2023-02-17T08:25:22.104Z,50.908211
2023-02-17T08:26:22.106Z,50.908035
2023-02-17T08:27:22.085Z,50.908134
2023-02-17T08:28:22.085Z,50.908142
2023-02-17T08:29:22.111Z,50.908024
2023-02-17T08:30:22.081Z,50.907928
2023-02-17T08:31:22.139Z,50.907864
2023-02-17T08:32:22.055Z,50.908108
2023-02-17T08:33:22.036Z,50.908184
2023-02-17T08:34:22.097Z,50.908146
2023-02-17T08:35:22.026Z,50.908154
2023-02-17T08:36:22.018Z,50.908043
2023-02-17T08:37:22.006Z,50.908092
2023-02-17T08:38:22.000Z,50.908253
2023-02-17T08:39:22.024Z,50.908314
2023-02-17T08:40:21.992Z,50.908329
2023-02-17T08:41:21.973Z,50.908146
2023-02-17T08:42:22.012Z,50.908241
2023-02-17T08:43:21.964Z,50.908264
2023-02-17T08:44:21.976Z,50.908180
2023-02-17T08:45:21.957Z,50.908150
2023-02-17T08:46:22.043Z,50.908169
2023-02-17T08:47:21.962Z,50.908188
2023-02-17T08:48:21.926Z,50.908157
2023-02-17T08:49:21.992Z,50.908165
2023-02-17T08:50:22.910Z,50.908146
2023-02-17T08:51:21.907Z,50.908134
2023-02-17T08:52:21.913Z,50.908142
2023-02-17T08:53:21.928Z,50.908184
2023-02-17T08:54:21.906Z,50.908195
2023-02-17T08:55:21.866Z,50.908157
2023-02-17T08:56:21.917Z,50.908195
2023-02-17T08:57:21.869Z,50.908226
2023-02-17T08:58:21.890Z,50.908161
2023-02-17T08:59:21.909Z,50.908146
2023-02-17T09:00:21.831Z,50.908138
2023-02-17T09:01:21.858Z,50.908157
2023-02-17T09:02:21.820Z,50.908176
2023-02-17T09:03:21.835Z,50.908245
2023-02-17T09:04:21.906Z,50.908157
2023-02-17T09:05:21.802Z,50.908150
2023-02-17T09:06:21.782Z,50.908142
2023-02-17T09:07:21.776Z,50.908138
2023-02-17T09:08:21.777Z,50.908154
2023-02-17T09:09:21.821Z,50.908154
2023-02-17T09:10:21.768Z,50.908123
2023-02-17T09:11:21.792Z,50.908138
2023-02-17T09:12:21.782Z,50.908165
2023-02-17T09:13:21.734Z,50.908184
2023-02-17T09:14:21.751Z,50.908085
2023-02-17T09:15:21.715Z,50.908100
2023-02-17T09:16:21.776Z,50.908138
2023-02-17T09:17:21.697Z,50.908165
2023-02-17T09:18:21.699Z,50.908161
2023-02-17T09:19:21.730Z,50.908161
2023-02-17T09:20:25.201Z,50.908161
2023-02-17T09:21:22.680Z,50.908127
2023-02-17T09:22:31.708Z,50.908138
2023-02-17T09:23:23.688Z,50.908169
2023-02-17T09:24:21.671Z,50.908180
2023-02-17T09:25:22.755Z,50.908180
2023-02-17T09:26:21.703Z,50.908184
2023-02-17T09:27:21.641Z,50.908176
2023-02-17T09:28:21.623Z,50.908188
2023-02-17T09:29:21.658Z,50.908138
2023-02-17T09:30:21.662Z,50.908146
2023-02-17T09:31:21.736Z,50.908146
2023-02-17T09:32:21.676Z,50.908150
2023-02-17T09:33:21.621Z,50.908138
2023-02-17T09:34:21.602Z,50.908123
2023-02-17T09:35:21.570Z,50.908096
2023-02-17T09:36:21.600Z,50.908165
2023-02-17T09:37:21.554Z,50.908131
2023-02-17T09:38:21.542Z,50.908112
2023-02-17T09:39:21.560Z,50.908108
2023-02-17T09:40:21.598Z,50.908138
2023-02-17T09:41:21.565Z,50.908127
2023-02-17T09:42:21.602Z,50.908138
2023-02-17T09:43:21.556Z,50.908112
2023-02-17T09:44:21.518Z,50.908150
2023-02-17T09:45:21.488Z,50.908150
2023-02-17T09:46:21.524Z,50.908119
2023-02-17T09:47:21.572Z,50.908100
2023-02-17T09:48:21.467Z,50.908169
2023-02-17T09:49:21.525Z,50.908112
2023-02-17T09:50:21.458Z,50.908112
2023-02-17T09:51:21.442Z,50.908096
2023-02-17T09:52:21.442Z,50.908092
2023-02-17T09:53:21.417Z,50.908146
2023-02-17T09:54:21.460Z,50.908070
2023-02-17T09:55:21.466Z,50.908108
2023-02-17T09:56:21.413Z,50.908146
2023-02-17T09:57:21.389Z,50.908146
2023-02-17T09:58:21.426Z,50.908127
2023-02-17T09:59:21.401Z,50.908169
2023-02-17T10:00:21.372Z,50.908184
2023-02-17T10:01:21.385Z,50.908230
2023-02-17T10:02:21.349Z,50.908215
2023-02-17T10:03:21.394Z,50.908176
2023-02-17T10:04:21.428Z,50.908157
2023-02-17T10:05:22.067Z,50.908146
2023-02-17T10:06:21.319Z,50.908142
2023-02-17T10:07:21.340Z,50.908180
2023-02-17T10:08:21.374Z,50.908161
2023-02-17T10:09:21.303Z,50.908173
2023-02-17T10:10:21.456Z,50.908165
2023-02-17T10:11:21.288Z,50.908115
2023-02-17T10:12:21.273Z,50.908173
2023-02-17T10:13:21.321Z,50.908173
2023-02-17T10:14:21.303Z,50.908131
2023-02-17T10:15:21.273Z,50.908150
2023-02-17T10:16:21.297Z,50.908180
2023-02-17T10:17:21.317Z,50.908215
2023-02-17T10:18:21.223Z,50.908188
2023-02-17T10:19:21.290Z,50.908184
2023-02-17T10:20:21.321Z,50.908218
2023-02-17T10:21:21.259Z,50.908192
2023-02-17T10:22:21.223Z,50.908173
2023-02-17T10:23:21.184Z,50.908157
2023-02-17T10:24:21.247Z,50.908180
2023-02-17T10:25:21.202Z,50.908173
2023-02-17T10:26:21.209Z,50.908157
2023-02-17T10:27:21.186Z,50.908123
2023-02-17T10:28:21.242Z,50.908146
2023-02-17T10:29:21.177Z,50.908184
2023-02-17T10:30:21.188Z,50.908192
2023-02-17T10:31:21.218Z,50.908253
2023-02-17T10:32:21.194Z,50.908215
2023-02-17T10:33:21.105Z,50.908203
2023-02-17T10:34:21.153Z,50.908215
2023-02-17T10:35:21.127Z,50.908142
2023-02-17T10:36:21.077Z,50.908176
2023-02-17T10:37:21.073Z,50.908230
2023-02-17T10:38:21.064Z,50.908180
2023-02-17T10:39:21.057Z,50.908195
2023-02-17T10:40:21.125Z,50.908207
2023-02-17T10:41:21.044Z,50.908169
2023-02-17T10:42:21.048Z,50.908222
2023-02-17T10:43:21.027Z,50.908199
2023-02-17T10:44:21.021Z,50.908173
2023-02-17T10:45:21.050Z,50.908188
2023-02-17T10:46:21.024Z,50.908161
2023-02-17T10:47:21.004Z,50.908165
2023-02-17T10:48:20.995Z,50.908226
2023-02-17T10:49:20.977Z,50.908096
2023-02-17T10:50:21.065Z,50.908146
2023-02-17T10:51:20.962Z,50.908142
2023-02-17T10:52:20.955Z,50.908150
2023-02-17T10:53:20.947Z,50.908150
2023-02-17T10:54:20.944Z,50.908127
2023-02-17T10:55:23.295Z,50.908112
2023-02-17T10:56:21.927Z,50.908157
2023-02-17T10:57:20.922Z,50.908169
2023-02-17T10:58:20.907Z,50.908157
2023-02-17T10:59:20.915Z,50.908184
2023-02-17T11:00:20.952Z,50.908173
2023-02-17T11:01:20.922Z,50.908035
2023-02-17T11:02:20.877Z,50.908085
2023-02-17T11:03:20.877Z,50.908089
2023-02-17T11:04:20.861Z,50.908115
2023-02-17T11:05:20.921Z,50.908070
2023-02-17T11:06:20.867Z,50.908024
2023-02-17T11:07:20.840Z,50.908070
2023-02-17T11:08:20.835Z,50.908123
2023-02-17T11:09:20.822Z,50.908119
2023-02-17T11:10:20.829Z,50.908173
2023-02-17T11:11:20.844Z,50.908226
2023-02-17T11:12:20.797Z,50.908230
2023-02-17T11:13:20.789Z,50.908169
2023-02-17T11:14:20.803Z,50.908180
2023-02-17T11:15:20.785Z,50.908089
2023-02-17T11:16:20.827Z,50.908077
2023-02-17T11:17:20.786Z,50.908104
2023-02-17T11:18:20.755Z,50.908142
2023-02-17T11:19:20.757Z,50.908131
2023-02-17T11:20:20.741Z,50.908142
2023-02-17T11:21:20.754Z,50.908176
2023-02-17T11:22:20.721Z,50.908142
2023-02-17T11:23:20.715Z,50.908112
2023-02-17T11:24:20.705Z,50.908142